CheckWX is a tool to help pilots better visualize weather data.  It is not intended as a substitute for an official pre-flight weather briefing.

21:45:53 UTC

RCMQ TAF
Taichung Ching Chuang Kang Airport
Taichung City, Taiwan
TAF RCMQ 311700Z 3118/0118 33005KT 0600 RA FG SCT003 BKN006 OVC016 TX26/0105Z TN17/3121Z BECMG 3123/0100 3200 RA BR FEW006 BKN016 BKN030 BECMG 0101/0104 01015KT 8000 BECMG 0106/0109 9999 FEW010 SCT030 BKN060 BECMG 0112/0115 7000 FEW006 BKN020 BKN040

Mar-31@
18:00 UTC

Mar-31 @ 18:00 UTC

Mar-31@
23:00 UTC

Mar-31 @ 23:00 UTC

TAF RCMQ 311700Z 3118/0118 33005KT 0600 RA FG SCT003 BKN006 OVC016 TX26/0105Z TN17/3121Z
Wind
  • 330° at 5 KTS
Conditions
Rain, Fog
Cloud Levels
  • Scattered at 300' AGL
  • Broken at 600' AGL
  • Overcast at 1,600' AGL

Mar-31@
23:00 UTC

Mar-31 @ 23:00 UTC

Apr-1@
01:00 UTC

Apr-1 @ 01:00 UTC

BECMG 3123/0100 3200 RA BR FEW006 BKN016 BKN030

Becoming

Becoming Conditions expected by Wed, Apr 1, 2020 @ 00:00 UTC

Wind
  • 330° at 5 KTS
Conditions
Rain, Mist
Cloud Levels
  • Few at 600' AGL
  • Broken at 1,600' AGL
  • Broken at 3,000' AGL

Apr-1@
01:00 UTC

Apr-1 @ 01:00 UTC

Apr-1@
06:00 UTC

Apr-1 @ 06:00 UTC

BECMG 0101/0104 01015KT 8000

Becoming

Becoming Conditions expected by Wed, Apr 1, 2020 @ 04:00 UTC

Wind
  • 010° at 15 KTS
Conditions
Rain, Mist
Cloud Levels
  • Few at 600' AGL
  • Broken at 1,600' AGL
  • Broken at 3,000' AGL

Apr-1@
06:00 UTC

Apr-1 @ 06:00 UTC

Apr-1@
12:00 UTC

Apr-1 @ 12:00 UTC

BECMG 0106/0109 9999 FEW010 SCT030 BKN060

Becoming

Becoming Conditions expected by Wed, Apr 1, 2020 @ 09:00 UTC

Wind
  • 010° at 15 KTS
Conditions
Rain, Mist
Cloud Levels
  • Few at 1,000' AGL
  • Scattered at 3,000' AGL
  • Broken at 6,000' AGL

Apr-1@
12:00 UTC

Apr-1 @ 12:00 UTC

Apr-1@
18:00 UTC

Apr-1 @ 18:00 UTC

BECMG 0112/0115 7000 FEW006 BKN020 BKN040

Becoming

Becoming Conditions expected by Wed, Apr 1, 2020 @ 15:00 UTC

Wind
  • 010° at 15 KTS
Conditions
Rain, Mist
Cloud Levels
  • Few at 600' AGL
  • Broken at 2,000' AGL
  • Broken at 4,000' AGL